Time;durP1;ratioP1;P1;durP2;ratioP2;P2;SDS_P1;SDS_P2;PMS_P1;PMS_P2;Temp;Humidity;BMP_temperature;BMP_pressure;BME280_temperature;BME280_humidity;BME280_pressure;Samples;Min_cycle;Max_cycle;Signal;HPM_P1;HPM_P2
2023/05/29 00:02:17;;;;;;;0.00;0.00;;;;;;;;;;4977494;28;20117;-81
2023/05/29 00:04:42;;;;;;;0.00;0.00;;;;;;;;;;4977419;28;20101;-81
2023/05/29 00:07:08;;;;;;;0.00;0.00;;;;;;;;;;4977180;28;20078;-81
2023/05/29 00:09:34;;;;;;;0.00;0.00;;;;;;;;;;4977467;28;20050;-81
2023/05/29 00:12:01;;;;;;;0.00;0.00;;;;;;;;;;4975978;28;20050;-81
2023/05/29 00:14:27;;;;;;;0.00;0.00;;;;;;;;;;4976282;28;20050;-81
2023/05/29 00:16:53;;;;;;;0.00;0.00;;;;;;;;;;4977000;28;20051;-81
2023/05/29 00:19:21;;;;;;;0.00;0.00;;;;;;;;;;4976190;28;20043;-81
2023/05/29 00:21:48;;;;;;;0.00;0.00;;;;;;;;;;4975899;28;20050;-81
2023/05/29 00:24:17;;;;;;;0.00;0.00;;;;;;;;;;4976206;28;20083;-81
2023/05/29 00:26:44;;;;;;;0.00;0.00;;;;;;;;;;4975699;28;20070;-81
2023/05/29 00:29:10;;;;;;;0.00;0.00;;;;;;;;;;4975962;28;20053;-81
2023/05/29 00:31:36;;;;;;;0.00;0.00;;;;;;;;;;4976792;28;20061;-81
2023/05/29 00:34:03;;;;;;;0.00;0.00;;;;;;;;;;4975978;28;20129;-81
2023/05/29 00:36:29;;;;;;;0.00;0.00;;;;;;;;;;4975700;28;20058;-82
2023/05/29 00:38:55;;;;;;;0.00;0.00;;;;;;;;;;4975954;28;20047;-82
2023/05/29 00:41:21;;;;;;;0.00;0.00;;;;;;;;;;4976620;28;20045;-81
2023/05/29 00:43:47;;;;;;;0.00;0.00;;;;;;;;;;4977027;28;20394;-81
2023/05/29 00:46:14;;;;;;;0.00;0.00;;;;;;;;;;4975802;28;20047;-82
2023/05/29 00:48:42;;;;;;;0.00;0.00;;;;;;;;;;4975457;28;20125;-82
2023/05/29 00:51:09;;;;;;;0.00;0.00;;;;;;;;;;4975347;28;20039;-81
2023/05/29 00:53:35;;;;;;;0.00;0.00;;;;;;;;;;4974980;28;20055;-81
2023/05/29 00:56:02;;;;;;;0.00;0.00;;;;;;;;;;4976606;28;20461;-82
2023/05/29 00:58:28;;;;;;;0.00;0.00;;;;;;;;;;4976189;28;20053;-81
2023/05/29 01:00:54;;;;;;;0.00;0.00;;;;;;;;;;4976443;28;20093;-81
2023/05/29 01:03:22;;;;;;;0.00;0.00;;;;;;;;;;4974670;28;20093;-81
2023/05/29 01:05:49;;;;;;;0.00;0.00;;;;;;;;;;4976946;28;20065;-81
2023/05/29 01:08:15;;;;;;;0.00;0.00;;;;;;;;;;4975135;28;20078;-81
2023/05/29 01:10:42;;;;;;;0.00;0.00;;;;;;;;;;4974815;28;20051;-81
2023/05/29 01:13:23;;;;;;;0.00;0.00;;;;;;;;;;4974666;28;20051;-81
2023/05/29 01:15:55;;;;;;;0.00;0.00;;;;;;;;;;4975136;28;20046;-81
2023/05/29 01:18:36;;;;;;;0.00;0.00;;;;;;;;;;4975007;28;20062;-81
2023/05/29 01:21:08;;;;;;;0.00;0.00;;;;;;;;;;4975192;28;20077;-81
2023/05/29 01:23:34;;;;;;;0.00;0.00;;;;;;;;;;4958520;28;20047;-81
2023/05/29 01:26:20;;;;;;;0.00;0.00;;;;;;;;;;4976170;28;20038;-81
2023/05/29 01:28:48;;;;;;;0.00;0.00;;;;;;;;;;4974616;28;20054;-81
2023/05/29 01:31:18;;;;;;;0.00;0.00;;;;;;;;;;4974703;28;20494;-81
2023/05/29 01:33:51;;;;;;;0.00;0.00;;;;;;;;;;4975830;28;20043;-82
2023/05/29 01:36:17;;;;;;;0.00;0.00;;;;;;;;;;4974871;28;20070;-81
2023/05/29 01:38:43;;;;;;;0.00;0.00;;;;;;;;;;4958207;28;20483;-81
2023/05/29 01:41:10;;;;;;;0.00;0.00;;;;;;;;;;4975899;28;20042;-81
2023/05/29 01:43:36;;;;;;;0.00;0.00;;;;;;;;;;4974323;28;20078;-81
2023/05/29 01:46:02;;;;;;;0.00;0.00;;;;;;;;;;4974792;28;20464;-81
2023/05/29 01:48:28;;;;;;;0.00;0.00;;;;;;;;;;4975308;28;20035;-82
2023/05/29 01:50:55;;;;;;;0.00;0.00;;;;;;;;;;4974363;28;20050;-81
2023/05/29 01:53:22;;;;;;;0.00;0.00;;;;;;;;;;4973863;28;20035;-81
2023/05/29 01:55:48;;;;;;;0.00;0.00;;;;;;;;;;4975624;28;20046;-83
2023/05/29 01:58:15;;;;;;;0.00;0.00;;;;;;;;;;4975492;28;20047;-81
2023/05/29 02:00:41;;;;;;;0.00;0.00;;;;;;;;;;4975151;28;20434;-81
2023/05/29 02:03:07;;;;;;;0.00;0.00;;;;;;;;;;4975058;28;20147;-81
2023/05/29 02:05:33;;;;;;;0.00;0.00;;;;;;;;;;4973811;28;20079;-81
2023/05/29 02:07:59;;;;;;;0.00;0.00;;;;;;;;;;4975136;28;20414;-81
2023/05/29 02:10:26;;;;;;;0.00;0.00;;;;;;;;;;4974028;28;20074;-81
2023/05/29 02:12:52;;;;;;;0.00;0.00;;;;;;;;;;4973756;28;20055;-81
2023/05/29 02:15:18;;;;;;;0.00;0.00;;;;;;;;;;4975318;28;20035;-81
2023/05/29 02:17:44;;;;;;;0.00;0.00;;;;;;;;;;4973809;28;20390;-81
2023/05/29 02:20:11;;;;;;;0.00;0.00;;;;;;;;;;4973990;28;20039;-81
2023/05/29 02:22:36;;;;;;;0.00;0.00;;;;;;;;;;4974355;28;20129;-81
2023/05/29 02:25:03;;;;;;;0.00;0.00;;;;;;;;;;4973899;28;20134;-81
2023/05/29 02:27:29;;;;;;;0.20;0.10;;;;;;;;;;4973493;28;20051;-82
2023/05/29 02:29:55;;;;;;;0.00;0.00;;;;;;;;;;4973514;28;20121;-81
2023/05/29 02:32:22;;;;;;;0.00;0.00;;;;;;;;;;4974386;28;20046;-81
2023/05/29 02:34:49;;;;;;;0.00;0.00;;;;;;;;;;4974708;28;20474;-81
2023/05/29 02:37:15;;;;;;;0.00;0.00;;;;;;;;;;4973541;28;20129;-81
2023/05/29 02:39:41;;;;;;;0.00;0.00;;;;;;;;;;4974685;28;20039;-81
2023/05/29 02:42:07;;;;;;;0.00;0.00;;;;;;;;;;4973491;28;20053;-81
2023/05/29 02:44:33;;;;;;;0.00;0.00;;;;;;;;;;4974584;28;20045;-81
2023/05/29 02:46:59;;;;;;;0.00;0.00;;;;;;;;;;4973195;28;20043;-81
2023/05/29 02:49:25;;;;;;;0.00;0.00;;;;;;;;;;4973071;28;20435;-81
2023/05/29 02:51:56;;;;;;;0.00;0.00;;;;;;;;;;4974532;28;20051;-81
2023/05/29 02:54:22;;;;;;;0.00;0.00;;;;;;;;;;4974357;28;20054;-81
2023/05/29 02:56:48;;;;;;;0.00;0.00;;;;;;;;;;4974644;28;20035;-81
2023/05/29 02:59:14;;;;;;;0.00;0.00;;;;;;;;;;4974107;28;20039;-81
2023/05/29 03:01:41;;;;;;;0.00;0.00;;;;;;;;;;4973180;28;20467;-82
2023/05/29 03:04:07;;;;;;;0.00;0.00;;;;;;;;;;4974173;28;20467;-81
2023/05/29 03:06:33;;;;;;;0.00;0.00;;;;;;;;;;4973079;28;20101;-81
2023/05/29 03:08:59;;;;;;;0.00;0.00;;;;;;;;;;4974096;28;20049;-81
2023/05/29 03:11:25;;;;;;;0.00;0.00;;;;;;;;;;4973099;28;20054;-81
2023/05/29 03:13:51;;;;;;;0.00;0.00;;;;;;;;;;4972766;28;20074;-81
2023/05/29 03:16:17;;;;;;;0.00;0.00;;;;;;;;;;4973060;28;20050;-81
2023/05/29 03:18:43;;;;;;;0.00;0.00;;;;;;;;;;4974075;28;20034;-82
2023/05/29 03:21:10;;;;;;;0.00;0.00;;;;;;;;;;4972828;28;20042;-81
2023/05/29 03:23:36;;;;;;;0.00;0.00;;;;;;;;;;4973886;28;20050;-81
2023/05/29 03:26:03;;;;;;;0.00;0.00;;;;;;;;;;4972968;28;20047;-81
2023/05/29 03:28:29;;;;;;;0.00;0.00;;;;;;;;;;4973888;28;20117;-81
2023/05/29 03:30:55;;;;;;;0.10;0.05;;;;;;;;;;4972698;28;20054;-81
2023/05/29 03:33:21;;;;;;;0.00;0.00;;;;;;;;;;4974830;28;20042;-81
2023/05/29 03:35:47;;;;;;;0.00;0.00;;;;;;;;;;4978070;28;20043;-81
2023/05/29 03:38:13;;;;;;;0.00;0.00;;;;;;;;;;4976702;28;20043;-81
2023/05/29 03:40:40;;;;;;;0.00;0.00;;;;;;;;;;4976514;28;20374;-81
2023/05/29 03:43:06;;;;;;;0.00;0.00;;;;;;;;;;4976434;28;20185;-81
2023/05/29 03:45:32;;;;;;;0.00;0.00;;;;;;;;;;4960496;28;20193;-81
2023/05/29 03:47:58;;;;;;;0.00;0.00;;;;;;;;;;4976608;28;20047;-81
2023/05/29 03:50:24;;;;;;;0.00;0.00;;;;;;;;;;4976645;28;20159;-81
2023/05/29 03:52:50;;;;;;;0.00;0.00;;;;;;;;;;4976655;28;20487;-81
2023/05/29 03:55:17;;;;;;;0.00;0.00;;;;;;;;;;4977654;28;20047;-81
2023/05/29 03:57:43;;;;;;;0.00;0.00;;;;;;;;;;4976698;28;20129;-81
2023/05/29 04:00:12;;;;;;;0.00;0.00;;;;;;;;;;4977368;28;20459;-82
2023/05/29 04:02:38;;;;;;;0.00;0.00;;;;;;;;;;4976328;28;20049;-81
2023/05/29 04:05:06;;;;;;;0.00;0.00;;;;;;;;;;4977057;28;20506;-81
2023/05/29 04:07:32;;;;;;;0.00;0.00;;;;;;;;;;4976576;28;20046;-81
2023/05/29 04:09:58;;;;;;;0.00;0.00;;;;;;;;;;4977051;28;20486;-81
2023/05/29 04:12:24;;;;;;;0.00;0.00;;;;;;;;;;4975940;28;20082;-81
2023/05/29 04:14:50;;;;;;;0.00;0.00;;;;;;;;;;4977370;28;20089;-81
2023/05/29 04:17:16;;;;;;;0.00;0.00;;;;;;;;;;4977469;28;20454;-81
2023/05/29 04:19:42;;;;;;;0.00;0.00;;;;;;;;;;4975778;28;20038;-81
2023/05/29 04:22:08;;;;;;;0.00;0.00;;;;;;;;;;4977371;28;20117;-81
2023/05/29 04:24:35;;;;;;;0.00;0.00;;;;;;;;;;4975643;28;20046;-80
2023/05/29 04:27:01;;;;;;;0.00;0.00;;;;;;;;;;4959851;28;20078;-81
2023/05/29 04:29:27;;;;;;;0.00;0.00;;;;;;;;;;4959743;28;20050;-81
2023/05/29 04:31:55;;;;;;;0.00;0.00;;;;;;;;;;4975655;28;20058;-81
2023/05/29 04:34:21;;;;;;;0.00;0.00;;;;;;;;;;4975671;28;20039;-81
2023/05/29 04:36:47;;;;;;;0.00;0.00;;;;;;;;;;4975824;28;20497;-81
2023/05/29 04:39:13;;;;;;;0.00;0.00;;;;;;;;;;4976737;28;20466;-85
2023/05/29 04:41:40;;;;;;;0.00;0.00;;;;;;;;;;4977033;28;20050;-81
2023/05/29 04:44:07;;;;;;;0.00;0.00;;;;;;;;;;4975341;28;20038;-81
2023/05/29 04:46:34;;;;;;;0.00;0.00;;;;;;;;;;4974686;28;20121;-81
2023/05/29 04:49:02;;;;;;;0.00;0.00;;;;;;;;;;4975306;28;20043;-81
2023/05/29 04:51:29;;;;;;;0.00;0.00;;;;;;;;;;4975562;28;20071;-81
2023/05/29 04:53:56;;;;;;;0.00;0.00;;;;;;;;;;4975208;28;20046;-81
2023/05/29 04:56:22;;;;;;;0.00;0.00;;;;;;;;;;4975611;28;20046;-81
2023/05/29 04:58:48;;;;;;;0.00;0.00;;;;;;;;;;4975353;28;20039;-81
2023/05/29 05:01:15;;;;;;;0.00;0.00;;;;;;;;;;4976595;28;20042;-81
2023/05/29 05:03:41;;;;;;;0.00;0.00;;;;;;;;;;4976429;28;20059;-81
2023/05/29 05:06:09;;;;;;;0.00;0.00;;;;;;;;;;4976477;28;20125;-81
2023/05/29 05:08:36;;;;;;;0.00;0.00;;;;;;;;;;4974995;28;20082;-81
2023/05/29 05:11:02;;;;;;;0.00;0.00;;;;;;;;;;4958641;28;20070;-81
2023/05/29 05:13:28;;;;;;;0.17;0.10;;;;;;;;;;4976224;28;20050;-81
2023/05/29 05:15:54;;;;;;;0.00;0.00;;;;;;;;;;4976158;28;20039;-81
2023/05/29 05:18:20;;;;;;;0.00;0.00;;;;;;;;;;4974818;28;20043;-81
2023/05/29 05:20:46;;;;;;;0.00;0.00;;;;;;;;;;4974899;28;20125;-81
2023/05/29 05:23:13;;;;;;;0.00;0.00;;;;;;;;;;4975957;28;20125;-81
2023/05/29 05:25:39;;;;;;;0.00;0.00;;;;;;;;;;4976010;28;20043;-81
2023/05/29 05:28:05;;;;;;;0.00;0.00;;;;;;;;;;4974769;28;20400;-81
2023/05/29 05:30:31;;;;;;;0.00;0.00;;;;;;;;;;4974395;28;20074;-81
2023/05/29 05:32:57;;;;;;;0.00;0.00;;;;;;;;;;4974733;28;20043;-81
2023/05/29 05:35:24;;;;;;;0.00;0.00;;;;;;;;;;4974537;28;20043;-81
2023/05/29 05:37:50;;;;;;;0.00;0.00;;;;;;;;;;4974919;28;20062;-80
2023/05/29 05:40:16;;;;;;;0.00;0.00;;;;;;;;;;4974302;28;20125;-81
2023/05/29 05:42:42;;;;;;;0.00;0.00;;;;;;;;;;4975863;28;20042;-81
2023/05/29 05:45:08;;;;;;;0.00;0.00;;;;;;;;;;4974227;28;20065;-81
2023/05/29 05:47:35;;;;;;;0.00;0.00;;;;;;;;;;4975811;28;20046;-81
2023/05/29 05:50:01;;;;;;;0.00;0.00;;;;;;;;;;4975331;28;20125;-81
2023/05/29 05:52:30;;;;;;;0.00;0.00;;;;;;;;;;4975414;28;20078;-80
2023/05/29 05:54:56;;;;;;;0.00;0.00;;;;;;;;;;4974082;28;20042;-81
2023/05/29 05:57:22;;;;;;;0.00;0.00;;;;;;;;;;4974165;28;20043;-81
2023/05/29 05:59:48;;;;;;;0.00;0.00;;;;;;;;;;4973845;28;20126;-81
2023/05/29 06:02:14;;;;;;;0.00;0.00;;;;;;;;;;4975421;28;20047;-81
2023/05/29 06:04:41;;;;;;;0.20;0.05;;;;;;;;;;4973764;28;20499;-81
2023/05/29 06:07:08;;;;;;;0.00;0.00;;;;;;;;;;4974175;28;20051;-81
2023/05/29 06:09:34;;;;;;;0.00;0.00;;;;;;;;;;4973919;28;20514;-81
2023/05/29 06:12:00;;;;;;;0.00;0.00;;;;;;;;;;4973962;28;20125;-81
2023/05/29 06:14:26;;;;;;;0.00;0.00;;;;;;;;;;4974110;28;20041;-81
2023/05/29 06:16:53;;;;;;;0.00;0.00;;;;;;;;;;4975052;28;20488;-81
2023/05/29 06:19:19;;;;;;;0.00;0.00;;;;;;;;;;4975080;28;20494;-81
2023/05/29 06:21:45;;;;;;;0.00;0.00;;;;;;;;;;4973820;28;20090;-81
2023/05/29 06:24:11;;;;;;;0.00;0.00;;;;;;;;;;4975346;28;20041;-82
2023/05/29 06:26:37;;;;;;;0.00;0.00;;;;;;;;;;4973544;28;20043;-81
2023/05/29 06:29:03;;;;;;;0.00;0.00;;;;;;;;;;4974833;28;20039;-82
2023/05/29 06:31:30;;;;;;;0.00;0.00;;;;;;;;;;4974667;28;20042;-82
2023/05/29 06:33:56;;;;;;;0.00;0.00;;;;;;;;;;4973710;28;20046;-81
2023/05/29 06:36:22;;;;;;;0.00;0.00;;;;;;;;;;4974876;28;20049;-82
2023/05/29 06:38:48;;;;;;;0.00;0.00;;;;;;;;;;4973558;28;20039;-81
2023/05/29 06:41:14;;;;;;;0.00;0.00;;;;;;;;;;4974533;28;20049;-82
2023/05/29 06:43:40;;;;;;;0.00;0.00;;;;;;;;;;4973825;28;20046;-82
2023/05/29 06:46:06;;;;;;;0.00;0.00;;;;;;;;;;4973176;28;20501;-80
2023/05/29 06:48:34;;;;;;;0.00;0.00;;;;;;;;;;4973695;28;20057;-80
2023/05/29 06:51:00;;;;;;;0.00;0.00;;;;;;;;;;4974487;28;20050;-80
2023/05/29 06:53:26;;;;;;;0.00;0.00;;;;;;;;;;4974360;28;20097;-81
2023/05/29 06:55:53;;;;;;;0.00;0.00;;;;;;;;;;4973026;28;20126;-81
2023/05/29 06:58:19;;;;;;;0.00;0.00;;;;;;;;;;4973365;28;20061;-81
2023/05/29 07:00:46;;;;;;;0.00;0.00;;;;;;;;;;4974242;28;20565;-81
2023/05/29 07:03:12;;;;;;;0.00;0.00;;;;;;;;;;4974217;28;20049;-81
2023/05/29 07:05:38;;;;;;;0.00;0.00;;;;;;;;;;4972782;28;20051;-80
2023/05/29 07:08:04;;;;;;;0.00;0.00;;;;;;;;;;4972631;28;20097;-80
2023/05/29 07:10:30;;;;;;;0.05;0.03;;;;;;;;;;4956729;28;20105;-80
2023/05/29 07:12:56;;;;;;;0.00;0.00;;;;;;;;;;4974364;28;20442;-81
2023/05/29 07:15:23;;;;;;;0.00;0.00;;;;;;;;;;4973083;28;20042;-80
2023/05/29 07:17:49;;;;;;;0.00;0.00;;;;;;;;;;4972959;28;20432;-80
2023/05/29 07:20:16;;;;;;;0.00;0.00;;;;;;;;;;4973900;28;20039;-81
2023/05/29 07:22:42;;;;;;;0.00;0.00;;;;;;;;;;4975343;28;20495;-82
2023/05/29 07:25:08;;;;;;;0.00;0.00;;;;;;;;;;4974130;28;20054;-80
2023/05/29 07:27:35;;;;;;;0.00;0.00;;;;;;;;;;4976716;28;20042;-81
2023/05/29 07:30:01;;;;;;;0.00;0.00;;;;;;;;;;4993502;28;20096;-81
2023/05/29 07:32:27;;;;;;;0.00;0.00;;;;;;;;;;4993127;28;20081;-80
2023/05/29 07:34:55;;;;;;;0.00;0.00;;;;;;;;;;4985412;28;20497;-81
2023/05/29 07:37:21;;;;;;;0.00;0.00;;;;;;;;;;4976065;28;20101;-81
2023/05/29 07:39:47;;;;;;;0.00;0.00;;;;;;;;;;4972683;28;20047;-81
2023/05/29 07:42:13;;;;;;;0.00;0.00;;;;;;;;;;4989785;28;20035;-81
2023/05/29 07:44:41;;;;;;;0.00;0.00;;;;;;;;;;4982539;28;20043;-82
2023/05/29 07:47:07;;;;;;;0.00;0.00;;;;;;;;;;4973794;28;20049;-82
2023/05/29 07:49:33;;;;;;;0.00;0.00;;;;;;;;;;4974006;28;20041;-81
2023/05/29 07:51:59;;;;;;;0.00;0.00;;;;;;;;;;4972532;28;20081;-81
2023/05/29 07:54:26;;;;;;;0.00;0.00;;;;;;;;;;4972706;28;20054;-81
2023/05/29 07:56:52;;;;;;;0.00;0.00;;;;;;;;;;4973748;28;20038;-80
2023/05/29 07:59:18;;;;;;;0.00;0.00;;;;;;;;;;4972537;28;20039;-81
2023/05/29 08:01:45;;;;;;;0.00;0.00;;;;;;;;;;4973809;28;20043;-82
2023/05/29 08:04:11;;;;;;;0.00;0.00;;;;;;;;;;4969098;28;20059;-80
2023/05/29 08:06:37;;;;;;;0.00;0.00;;;;;;;;;;4972130;28;20122;-81
2023/05/29 08:09:04;;;;;;;0.00;0.00;;;;;;;;;;4958291;28;20044;-82
2023/05/29 08:11:30;;;;;;;0.00;0.00;;;;;;;;;;4954328;29;20208;-80
2023/05/29 08:13:56;;;;;;;0.00;0.00;;;;;;;;;;4954387;29;20044;-81
2023/05/29 08:16:22;;;;;;;0.00;0.00;;;;;;;;;;4964671;28;20042;-81
2023/05/29 08:18:48;;;;;;;0.00;0.00;;;;;;;;;;4974046;28;20344;-82
2023/05/29 08:21:15;;;;;;;0.00;0.00;;;;;;;;;;4975642;28;20039;-81
2023/05/29 08:23:41;;;;;;;0.00;0.00;;;;;;;;;;4971288;28;20129;-81
2023/05/29 08:26:07;;;;;;;0.43;0.32;;;;;;;;;;4975298;28;20057;-82
2023/05/29 08:28:33;;;;;;;0.00;0.00;;;;;;;;;;4977032;28;20046;-82
2023/05/29 08:30:59;;;;;;;0.00;0.00;;;;;;;;;;4971817;28;20046;-81
2023/05/29 08:33:25;;;;;;;0.00;0.00;;;;;;;;;;4968047;28;20134;-82
2023/05/29 08:35:51;;;;;;;0.00;0.00;;;;;;;;;;4969644;28;20126;-82
2023/05/29 08:38:17;;;;;;;0.00;0.00;;;;;;;;;;4971854;28;20549;-81
2023/05/29 08:40:43;;;;;;;0.00;0.00;;;;;;;;;;4979296;28;20038;-81
2023/05/29 08:43:18;;;;;;;0.00;0.00;;;;;;;;;;4975337;28;20387;-81
2023/05/29 08:45:45;;;;;;;0.00;0.00;;;;;;;;;;4975951;28;20053;-81
2023/05/29 08:48:11;;;;;;;0.00;0.00;;;;;;;;;;4988651;28;20433;-81
2023/05/29 08:50:46;;;;;;;0.00;0.00;;;;;;;;;;4976481;28;20093;-80
2023/05/29 08:53:16;;;;;;;0.00;0.00;;;;;;;;;;4976337;28;20043;-80
2023/05/29 08:55:42;;;;;;;0.00;0.00;;;;;;;;;;4960126;28;20094;-81
2023/05/29 08:58:09;;;;;;;0.00;0.00;;;;;;;;;;4964983;28;20321;-80
2023/05/29 09:00:36;;;;;;;0.00;0.00;;;;;;;;;;4974870;28;20096;-80
2023/05/29 09:03:03;;;;;;;0.00;0.00;;;;;;;;;;4973270;28;20122;-80
2023/05/29 09:05:29;;;;;;;0.00;0.00;;;;;;;;;;4976302;28;20059;-80
2023/05/29 09:07:57;;;;;;;0.00;0.00;;;;;;;;;;4976200;28;20054;-80
2023/05/29 09:10:25;;;;;;;0.00;0.00;;;;;;;;;;4976129;28;20078;-80
2023/05/29 09:12:51;;;;;;;0.00;0.00;;;;;;;;;;4976260;28;20126;-80
2023/05/29 09:15:18;;;;;;;0.00;0.00;;;;;;;;;;4975269;28;20038;-80
2023/05/29 09:17:55;;;;;;;0.00;0.00;;;;;;;;;;4976064;28;20522;-80
2023/05/29 09:20:23;;;;;;;0.00;0.00;;;;;;;;;;4975023;28;20113;-80
2023/05/29 09:22:56;;;;;;;0.00;0.00;;;;;;;;;;4975685;28;20051;-80
2023/05/29 09:25:26;;;;;;;0.00;0.00;;;;;;;;;;4976114;28;20126;-80
2023/05/29 09:28:11;;;;;;;0.00;0.00;;;;;;;;;;4975930;28;20081;-81
2023/05/29 09:30:38;;;;;;;0.00;0.00;;;;;;;;;;4969034;28;20459;-80
2023/05/29 09:33:06;;;;;;;0.00;0.00;;;;;;;;;;4966359;28;20521;-81
2023/05/29 09:35:36;;;;;;;0.00;0.00;;;;;;;;;;4974647;28;20035;-81
2023/05/29 09:38:03;;;;;;;0.00;0.00;;;;;;;;;;4970742;28;20042;-80
2023/05/29 09:40:31;;;;;;;0.00;0.00;;;;;;;;;;4975648;28;20046;-81
2023/05/29 09:43:03;;;;;;;0.00;0.00;;;;;;;;;;4971120;28;20098;-81
2023/05/29 09:45:30;;;;;;;0.00;0.00;;;;;;;;;;4975488;28;20210;-80
2023/05/29 09:47:56;;;;;;;0.00;0.00;;;;;;;;;;4958071;28;20096;-81
2023/05/29 09:50:25;;;;;;;0.00;0.00;;;;;;;;;;4975381;28;20086;-81
2023/05/29 09:52:53;;;;;;;0.00;0.00;;;;;;;;;;4973803;28;20047;-80
2023/05/29 09:55:25;;;;;;;2.08;0.08;;;;;;;;;;4974253;28;20038;-80
2023/05/29 09:57:51;;;;;;;0.00;0.00;;;;;;;;;;4973956;28;20049;-80
2023/05/29 10:00:18;;;;;;;0.00;0.00;;;;;;;;;;4975164;28;20035;-80
2023/05/29 10:02:44;;;;;;;0.00;0.00;;;;;;;;;;4973967;28;20050;-80
2023/05/29 10:05:11;;;;;;;0.00;0.00;;;;;;;;;;4974911;28;20590;-81
2023/05/29 10:07:38;;;;;;;0.00;0.00;;;;;;;;;;4974026;28;20058;-82
2023/05/29 10:10:05;;;;;;;0.00;0.00;;;;;;;;;;4974469;28;20207;-81
2023/05/29 10:12:37;;;;;;;0.00;0.00;;;;;;;;;;4974700;28;20043;-82
2023/05/29 10:15:05;;;;;;;0.00;0.00;;;;;;;;;;4973539;28;20078;-81
2023/05/29 10:17:36;;;;;;;0.00;0.00;;;;;;;;;;4973609;28;20431;-84
2023/05/29 10:20:06;;;;;;;0.00;0.00;;;;;;;;;;4973591;28;20081;-81
2023/05/29 10:22:32;;;;;;;0.00;0.00;;;;;;;;;;4973400;28;20097;-81
2023/05/29 10:24:58;;;;;;;0.00;0.00;;;;;;;;;;4975037;28;20545;-82
2023/05/29 10:27:24;;;;;;;0.00;0.00;;;;;;;;;;4993158;28;20041;-81
2023/05/29 10:29:59;;;;;;;0.00;0.00;;;;;;;;;;4992645;28;20046;-80
2023/05/29 10:32:33;;;;;;;0.00;0.00;;;;;;;;;;4992544;28;20870;-81
2023/05/29 10:35:02;;;;;;;0.10;0.10;;;;;;;;;;4994365;28;20126;-81
2023/05/29 10:37:28;;;;;;;0.00;0.00;;;;;;;;;;4992445;28;20089;-81
2023/05/29 10:39:54;;;;;;;0.00;0.00;;;;;;;;;;4993768;28;20074;-81
2023/05/29 10:42:38;;;;;;;0.00;0.00;;;;;;;;;;4992419;28;20047;-81
2023/05/29 10:45:05;;;;;;;0.00;0.00;;;;;;;;;;4993772;28;20045;-81
2023/05/29 10:47:31;;;;;;;0.00;0.00;;;;;;;;;;4993441;28;20949;-81
2023/05/29 10:50:01;;;;;;;0.00;0.00;;;;;;;;;;4992299;28;20046;-81
2023/05/29 10:52:27;;;;;;;0.00;0.00;;;;;;;;;;4993367;28;20112;-81
2023/05/29 10:54:54;;;;;;;0.00;0.00;;;;;;;;;;4992328;28;20055;-81
2023/05/29 10:57:24;;;;;;;0.00;0.00;;;;;;;;;;4992210;28;20141;-81
2023/05/29 11:00:00;;;;;;;0.00;0.00;;;;;;;;;;4993471;28;20138;-81
2023/05/29 11:02:26;;;;;;;0.00;0.00;;;;;;;;;;4992131;28;20112;-81
2023/05/29 11:05:11;;;;;;;0.00;0.00;;;;;;;;;;4992096;28;20494;-81
2023/05/29 11:07:54;;;;;;;0.00;0.00;;;;;;;;;;4992233;28;20042;-81
2023/05/29 11:10:40;;;;;;;0.00;0.00;;;;;;;;;;4993378;28;20043;-83
2023/05/29 11:13:07;;;;;;;;;;;;;;;;;;4993265;28;20055;-81
2023/05/29 11:15:33;;;;;;;0.00;0.00;;;;;;;;;;4993600;28;19924;-81
2023/05/29 11:18:09;;;;;;;0.00;0.00;;;;;;;;;;4991717;28;20125;-81
2023/05/29 11:20:35;;;;;;;0.10;0.00;;;;;;;;;;4993391;28;20053;-82
2023/05/29 11:23:03;;;;;;;0.10;0.10;;;;;;;;;;4991892;28;20402;-81
2023/05/29 11:25:32;;;;;;;0.00;0.00;;;;;;;;;;4993560;28;20082;-81
2023/05/29 11:27:58;;;;;;;0.00;0.00;;;;;;;;;;4991639;28;20624;-81
2023/05/29 11:30:24;;;;;;;0.00;0.00;;;;;;;;;;4992016;28;20108;-81
2023/05/29 11:32:52;;;;;;;0.00;0.00;;;;;;;;;;4991808;28;20423;-81
2023/05/29 11:35:19;;;;;;;0.00;0.00;;;;;;;;;;4993190;28;20039;-81
2023/05/29 11:37:46;;;;;;;0.00;0.00;;;;;;;;;;4991686;28;20046;-81
2023/05/29 11:40:13;;;;;;;0.00;0.00;;;;;;;;;;4992939;28;20536;-80
2023/05/29 11:42:46;;;;;;;0.00;0.00;;;;;;;;;;4993165;28;20054;-81
2023/05/29 11:45:12;;;;;;;0.00;0.00;;;;;;;;;;4993332;28;20038;-81
2023/05/29 11:47:56;;;;;;;0.00;0.00;;;;;;;;;;4992814;28;20401;-81
2023/05/29 11:50:23;;;;;;;0.00;0.00;;;;;;;;;;4991677;28;20074;-81
2023/05/29 11:52:51;;;;;;;0.00;0.00;;;;;;;;;;4993174;28;20042;-81
2023/05/29 11:55:18;;;;;;;0.00;0.00;;;;;;;;;;4994102;28;20046;-81
2023/05/29 11:57:44;;;;;;;0.00;0.00;;;;;;;;;;4979536;28;20038;-81
2023/05/29 12:00:13;;;;;;;0.00;0.00;;;;;;;;;;4996611;28;20375;-81
2023/05/29 12:02:39;;;;;;;0.00;0.00;;;;;;;;;;4996919;28;20054;-81
2023/05/29 12:05:08;;;;;;;0.13;0.10;;;;;;;;;;4996584;28;20085;-81
2023/05/29 12:07:35;;;;;;;0.00;0.00;;;;;;;;;;4979230;28;20053;-82
2023/05/29 12:10:11;;;;;;;0.00;0.00;;;;;;;;;;4979065;28;20054;-81
2023/05/29 12:12:39;;;;;;;0.00;0.00;;;;;;;;;;4995674;28;20437;-81
2023/05/29 12:15:06;;;;;;;0.00;0.00;;;;;;;;;;4995738;28;20219;-82
2023/05/29 12:17:32;;;;;;;0.00;0.00;;;;;;;;;;4995440;28;20074;-81
2023/05/29 12:19:58;;;;;;;0.00;0.00;;;;;;;;;;4994961;28;20678;-81
2023/05/29 12:22:33;;;;;;;0.00;0.00;;;;;;;;;;4996616;28;20044;-81
2023/05/29 12:25:04;;;;;;;0.00;0.00;;;;;;;;;;4994920;28;20046;-81
2023/05/29 12:27:30;;;;;;;0.00;0.00;;;;;;;;;;4996786;28;20049;-81
2023/05/29 12:30:02;;;;;;;0.00;0.00;;;;;;;;;;4994973;28;20494;-81
2023/05/29 12:32:35;;;;;;;0.00;0.00;;;;;;;;;;4995061;28;20042;-81
2023/05/29 12:35:03;;;;;;;0.00;0.00;;;;;;;;;;4994855;28;20050;-81
2023/05/29 12:37:30;;;;;;;0.38;0.10;;;;;;;;;;4978944;28;20132;-81
2023/05/29 12:40:13;;;;;;;0.00;0.00;;;;;;;;;;4994615;28;20053;-81
2023/05/29 12:42:39;;;;;;;0.00;0.00;;;;;;;;;;4995019;28;20052;-80
2023/05/29 12:45:06;;;;;;;0.00;0.00;;;;;;;;;;4994576;28;20042;-81
2023/05/29 12:47:32;;;;;;;0.00;0.00;;;;;;;;;;4995095;28;20125;-81
2023/05/29 12:49:58;;;;;;;0.00;0.00;;;;;;;;;;4995963;28;20109;-80
2023/05/29 12:52:24;;;;;;;0.00;0.00;;;;;;;;;;4994965;28;20498;-81
2023/05/29 12:54:50;;;;;;;0.00;0.00;;;;;;;;;;4995757;28;20066;-81
2023/05/29 12:57:16;;;;;;;0.00;0.00;;;;;;;;;;4995863;28;20042;-81
2023/05/29 12:59:42;;;;;;;0.00;0.00;;;;;;;;;;4994349;28;20089;-81
2023/05/29 13:02:08;;;;;;;0.00;0.00;;;;;;;;;;4978470;28;20073;-81
2023/05/29 13:04:34;;;;;;;0.00;0.00;;;;;;;;;;4995439;28;20069;-81
2023/05/29 13:07:00;;;;;;;0.00;0.00;;;;;;;;;;4994104;28;20081;-80
2023/05/29 13:09:26;;;;;;;0.00;0.00;;;;;;;;;;4995400;28;20074;-81
2023/05/29 13:11:53;;;;;;;0.00;0.00;;;;;;;;;;4994433;28;20548;-80
2023/05/29 13:14:19;;;;;;;0.00;0.00;;;;;;;;;;4995646;28;20039;-81
2023/05/29 13:16:44;;;;;;;0.00;0.00;;;;;;;;;;4994188;28;20069;-79
2023/05/29 13:19:11;;;;;;;0.00;0.00;;;;;;;;;;4995418;28;20034;-81
2023/05/29 13:21:37;;;;;;;0.00;0.00;;;;;;;;;;4995680;28;20042;-81
2023/05/29 13:24:03;;;;;;;0.00;0.00;;;;;;;;;;4994035;28;20038;-81
2023/05/29 13:26:28;;;;;;;0.00;0.00;;;;;;;;;;4994533;28;20077;-81
2023/05/29 13:28:54;;;;;;;0.25;0.00;;;;;;;;;;4995389;28;20482;-80
2023/05/29 13:31:20;;;;;;;0.00;0.00;;;;;;;;;;4994008;28;20078;-81
2023/05/29 13:33:47;;;;;;;0.00;0.00;;;;;;;;;;4994142;28;20046;-81
2023/05/29 13:36:13;;;;;;;0.00;0.00;;;;;;;;;;4994111;28;20125;-81
2023/05/29 13:38:39;;;;;;;0.00;0.00;;;;;;;;;;4994165;28;20193;-81
2023/05/29 13:41:05;;;;;;;0.00;0.00;;;;;;;;;;4993742;28;20050;-82
2023/05/29 13:43:31;;;;;;;0.00;0.00;;;;;;;;;;4994060;28;20050;-81
2023/05/29 13:45:57;;;;;;;0.00;0.00;;;;;;;;;;4993693;28;20050;-81
2023/05/29 13:48:23;;;;;;;0.00;0.00;;;;;;;;;;4993686;28;20042;-81
2023/05/29 13:50:49;;;;;;;0.17;0.00;;;;;;;;;;4993460;28;20440;-81
2023/05/29 13:53:15;;;;;;;0.00;0.00;;;;;;;;;;4994809;28;20046;-80
2023/05/29 13:55:41;;;;;;;0.00;0.00;;;;;;;;;;4994685;28;20097;-81
2023/05/29 13:58:07;;;;;;;0.00;0.00;;;;;;;;;;4993843;28;20046;-81
2023/05/29 14:00:33;;;;;;;0.00;0.00;;;;;;;;;;4993198;28;20057;-81
2023/05/29 14:03:01;;;;;;;0.00;0.00;;;;;;;;;;4994811;28;20116;-80
2023/05/29 14:05:26;;;;;;;0.00;0.00;;;;;;;;;;4992938;28;20525;-81
2023/05/29 14:07:52;;;;;;;0.00;0.00;;;;;;;;;;4993424;28;20046;-81
2023/05/29 14:10:18;;;;;;;0.00;0.00;;;;;;;;;;4994228;28;20184;-80
2023/05/29 14:12:44;;;;;;;0.00;0.00;;;;;;;;;;4993226;28;20057;-81
2023/05/29 14:15:10;;;;;;;0.00;0.00;;;;;;;;;;4993390;28;20105;-81
2023/05/29 14:17:36;;;;;;;0.52;0.40;;;;;;;;;;4993947;28;20497;-80
2023/05/29 14:20:04;;;;;;;0.00;0.00;;;;;;;;;;4992637;28;20045;-80
2023/05/29 14:22:30;;;;;;;0.00;0.00;;;;;;;;;;4994618;28;20096;-80
2023/05/29 14:24:59;;;;;;;0.00;0.00;;;;;;;;;;4994122;28;20046;-81
2023/05/29 14:27:24;;;;;;;0.00;0.00;;;;;;;;;;4993428;28;20070;-81
2023/05/29 14:29:50;;;;;;;0.00;0.00;;;;;;;;;;4992802;28;20100;-80
2023/05/29 14:32:16;;;;;;;0.00;0.00;;;;;;;;;;4994256;28;20101;-81
2023/05/29 14:34:42;;;;;;;0.00;0.00;;;;;;;;;;4976649;28;20129;-81
2023/05/29 14:37:08;;;;;;;0.00;0.00;;;;;;;;;;4993145;28;20121;-80
2023/05/29 14:39:34;;;;;;;0.00;0.00;;;;;;;;;;4993934;28;20073;-81
2023/05/29 14:42:01;;;;;;;0.00;0.00;;;;;;;;;;4993131;28;20042;-80
2023/05/29 14:44:27;;;;;;;0.00;0.00;;;;;;;;;;4994227;28;20077;-81